createdAt,value
2023-04-21T00:01:35.758Z,12.63
2023-04-21T00:04:02.766Z,11.90
2023-04-21T00:06:31.255Z,12.52
2023-04-21T00:08:57.962Z,12.65
2023-04-21T00:11:24.745Z,12.77
2023-04-21T00:13:51.357Z,12.98
2023-04-21T00:16:18.078Z,12.10
2023-04-21T00:18:44.778Z,12.05
2023-04-21T00:21:11.406Z,11.95
2023-04-21T00:23:38.045Z,12.10
2023-04-21T00:26:04.813Z,12.30
2023-04-21T00:28:31.493Z,12.52
2023-04-21T00:30:58.203Z,11.95
2023-04-21T00:33:24.940Z,11.55
2023-04-21T00:35:51.540Z,11.27
2023-04-21T00:38:18.203Z,13.05
2023-04-21T00:40:44.853Z,12.15
2023-04-21T00:43:11.572Z,11.88
2023-04-21T00:45:38.268Z,11.98
2023-04-21T00:48:05.228Z,12.38
2023-04-21T00:50:32.998Z,11.70
2023-04-21T00:53:00.390Z,12.77
2023-04-21T00:55:27.055Z,12.23
2023-04-21T00:57:56.438Z,10.52
2023-04-21T01:00:23.435Z,10.82
2023-04-21T01:02:50.384Z,12.93
2023-04-21T01:05:18.115Z,11.32
2023-04-21T01:07:44.936Z,12.93
2023-04-21T01:10:11.764Z,12.45
2023-04-21T01:12:45.784Z,12.18
2023-04-21T01:15:13.977Z,11.55
2023-04-21T01:17:41.576Z,11.52
2023-04-21T01:20:13.309Z,11.40
2023-04-21T01:22:47.830Z,11.48
2023-04-21T01:25:14.984Z,11.50
2023-04-21T01:27:41.630Z,11.23
2023-04-21T01:30:09.930Z,11.15
2023-04-21T01:32:37.083Z,10.80
2023-04-21T01:35:04.114Z,10.40
2023-04-21T01:37:32.168Z,11.02
2023-04-21T01:40:01.354Z,10.98
2023-04-21T01:42:29.579Z,11.50
2023-04-21T01:44:56.979Z,11.45
2023-04-21T01:47:25.237Z,10.48
2023-04-21T01:49:52.433Z,11.63
2023-04-21T01:52:19.305Z,10.40
2023-04-21T01:54:46.132Z,10.20
2023-04-21T01:57:12.888Z,11.40
2023-04-21T01:59:39.865Z,11.02
2023-04-21T02:02:06.695Z,11.32
2023-04-21T02:04:33.628Z,9.82
2023-04-21T02:07:00.510Z,9.57
2023-04-21T02:09:27.198Z,10.77
2023-04-21T02:11:57.094Z,11.00
2023-04-21T02:14:25.028Z,9.95
2023-04-21T02:16:51.732Z,11.25
2023-04-21T02:19:18.801Z,11.07
2023-04-21T02:21:45.649Z,10.52
2023-04-21T02:24:12.496Z,10.73
2023-04-21T02:26:39.204Z,10.30
2023-04-21T02:29:07.099Z,10.85
2023-04-21T02:31:40.389Z,11.43
2023-04-21T02:34:13.090Z,10.60
2023-04-21T02:36:39.812Z,11.32
2023-04-21T02:39:06.527Z,10.95
2023-04-21T02:41:33.183Z,11.05
2023-04-21T02:43:59.822Z,11.85
2023-04-21T02:46:26.502Z,11.73
2023-04-21T02:48:53.187Z,12.07
2023-04-21T02:51:19.841Z,11.65
2023-04-21T02:53:46.462Z,10.48
2023-04-21T02:56:13.197Z,11.82
2023-04-21T02:58:40.023Z,10.45
2023-04-21T03:01:06.973Z,10.32
2023-04-21T03:03:33.992Z,11.05
2023-04-21T03:06:02.629Z,13.50
2023-04-21T03:08:31.059Z,12.13
2023-04-21T03:10:58.354Z,11.60
2023-04-21T03:13:25.055Z,11.40
2023-04-21T03:15:52.274Z,11.50
2023-04-21T03:18:19.103Z,13.02
2023-04-21T03:20:45.758Z,12.05
2023-04-21T03:23:12.439Z,11.68
2023-04-21T03:25:39.354Z,11.55
2023-04-21T03:28:06.226Z,12.60
2023-04-21T03:30:33.082Z,13.38
2023-04-21T03:33:00.060Z,11.63
2023-04-21T03:35:27.172Z,10.48
2023-04-21T03:37:53.806Z,11.43
2023-04-21T03:40:20.622Z,10.95
2023-04-21T03:42:47.264Z,12.05
2023-04-21T03:45:14.049Z,10.02
2023-04-21T03:47:40.764Z,10.95
2023-04-21T03:50:07.967Z,9.95
2023-04-21T03:52:34.565Z,10.55
2023-04-21T03:55:01.425Z,12.00
2023-04-21T03:57:28.146Z,11.40
2023-04-21T03:59:54.806Z,12.32
2023-04-21T04:02:21.576Z,11.85
2023-04-21T04:04:49.008Z,12.35
2023-04-21T04:07:17.482Z,11.65
2023-04-21T04:09:44.567Z,12.50
2023-04-21T04:12:11.937Z,11.45
2023-04-21T04:14:39.419Z,11.73
2023-04-21T04:17:06.047Z,12.00
2023-04-21T04:19:32.801Z,12.65
2023-04-21T04:22:02.688Z,11.25
2023-04-21T04:24:29.594Z,10.57
2023-04-21T04:26:57.870Z,12.10
2023-04-21T04:29:24.635Z,11.52
2023-04-21T04:31:51.543Z,12.48
2023-04-21T04:34:18.709Z,11.48
2023-04-21T04:36:46.149Z,11.75
2023-04-21T04:39:12.819Z,11.60
2023-04-21T04:41:39.863Z,12.25
2023-04-21T04:44:06.569Z,10.32
2023-04-21T04:46:33.792Z,12.80
2023-04-21T04:49:01.366Z,12.85
2023-04-21T04:51:28.238Z,11.55
2023-04-21T04:53:54.802Z,11.65
2023-04-21T04:56:22.020Z,13.15
2023-04-21T04:58:48.716Z,11.57
2023-04-21T05:01:18.913Z,11.73
2023-04-21T05:03:45.987Z,12.30
2023-04-21T05:06:13.978Z,12.23
2023-04-21T05:08:41.456Z,13.05
2023-04-21T05:11:08.937Z,13.02
2023-04-21T05:13:37.463Z,12.15
2023-04-21T05:16:06.480Z,13.40
2023-04-21T05:18:33.894Z,11.88
2023-04-21T05:21:01.472Z,11.93
2023-04-21T05:23:28.758Z,11.60
2023-04-21T05:25:55.734Z,11.27
2023-04-21T05:28:23.133Z,11.75
2023-04-21T05:30:49.723Z,11.60
2023-04-21T05:33:19.568Z,12.32
2023-04-21T05:35:46.754Z,11.60
2023-04-21T05:38:13.558Z,12.10
2023-04-21T05:40:40.277Z,13.40
2023-04-21T05:43:07.509Z,11.13
2023-04-21T05:45:38.527Z,11.55
2023-04-21T05:48:06.192Z,11.63
2023-04-21T05:50:36.022Z,11.05
2023-04-21T05:53:02.715Z,11.10
2023-04-21T05:55:30.116Z,10.60
2023-04-21T05:57:56.946Z,11.45
2023-04-21T06:00:27.276Z,10.00
2023-04-21T06:02:54.112Z,10.55
2023-04-21T06:05:21.397Z,10.10
2023-04-21T06:07:48.118Z,10.30
2023-04-21T06:10:18.800Z,9.90
2023-04-21T06:12:45.675Z,9.90
2023-04-21T06:15:12.377Z,10.60
2023-04-21T06:17:39.115Z,10.70
2023-04-21T06:20:06.707Z,9.98
2023-04-21T06:22:33.613Z,10.27
2023-04-21T06:25:00.680Z,10.57
2023-04-21T06:27:27.478Z,10.15
2023-04-21T06:29:55.771Z,10.32
2023-04-21T06:32:22.456Z,10.20
2023-04-21T06:34:49.116Z,9.82
2023-04-21T06:37:15.751Z,9.65
2023-04-21T06:39:42.426Z,10.68
2023-04-21T06:42:09.102Z,10.38
2023-04-21T06:44:35.710Z,11.18
2023-04-21T06:47:02.440Z,8.88
2023-04-21T06:49:29.230Z,9.65
2023-04-21T06:51:55.905Z,9.40
2023-04-21T06:54:22.616Z,8.80
2023-04-21T06:56:51.263Z,9.52
2023-04-21T06:59:18.134Z,9.50
2023-04-21T07:01:45.064Z,8.95
2023-04-21T07:04:11.792Z,10.10
2023-04-21T07:06:38.519Z,8.93
2023-04-21T07:09:05.875Z,9.27
2023-04-21T07:11:32.553Z,10.15
2023-04-21T07:14:02.095Z,9.27
2023-04-21T07:16:29.531Z,9.27
2023-04-21T07:18:56.905Z,9.75
2023-04-21T07:21:23.592Z,8.20
2023-04-21T07:23:50.334Z,9.35
2023-04-21T07:26:18.051Z,8.68
2023-04-21T07:28:44.690Z,9.13
2023-04-21T07:31:11.364Z,9.48
2023-04-21T07:33:38.019Z,9.13
2023-04-21T07:36:04.959Z,8.57
2023-04-21T07:38:31.648Z,9.13
2023-04-21T07:40:58.321Z,8.30
2023-04-21T07:43:26.756Z,8.95
2023-04-21T07:45:53.515Z,9.25
2023-04-21T07:48:20.300Z,9.13
2023-04-21T07:50:47.178Z,8.85
2023-04-21T07:53:13.876Z,9.02
2023-04-21T07:55:40.485Z,8.50
2023-04-21T07:58:07.382Z,9.13
2023-04-21T08:00:34.113Z,7.18
2023-04-21T08:03:00.873Z,8.55
2023-04-21T08:05:31.130Z,9.45
2023-04-21T08:08:00.283Z,9.38
2023-04-21T08:10:27.052Z,9.07
2023-04-21T08:12:53.744Z,9.32
2023-04-21T08:15:20.702Z,7.88
2023-04-21T08:17:47.452Z,9.07
2023-04-21T08:20:14.218Z,8.23
2023-04-21T08:22:41.046Z,8.65
2023-04-21T08:25:08.779Z,8.48
2023-04-21T08:27:39.031Z,8.02
2023-04-21T08:30:06.453Z,7.63
2023-04-21T08:32:33.572Z,7.97
2023-04-21T08:35:00.343Z,8.65
2023-04-21T08:37:27.107Z,7.70
2023-04-21T08:39:54.500Z,8.25
2023-04-21T08:42:21.183Z,7.80
2023-04-21T08:44:48.053Z,6.95
2023-04-21T08:47:15.713Z,7.15
2023-04-21T08:49:45.093Z,7.03
2023-04-21T08:52:13.836Z,6.82
2023-04-21T08:54:40.979Z,6.93
2023-04-21T08:57:15.096Z,7.55
2023-04-21T08:59:43.295Z,6.80
2023-04-21T09:02:13.172Z,6.95
2023-04-21T09:04:41.918Z,5.88
2023-04-21T09:07:09.225Z,6.88
2023-04-21T09:09:55.854Z,6.72
2023-04-21T09:12:23.381Z,6.03
2023-04-21T09:14:50.365Z,6.38
2023-04-21T09:17:18.578Z,5.85
2023-04-21T09:19:45.404Z,6.13
2023-04-21T09:22:17.125Z,4.93
2023-04-21T09:24:48.695Z,5.70
2023-04-21T09:27:17.195Z,6.05
2023-04-21T09:29:49.114Z,5.60
2023-04-21T09:32:19.851Z,5.20
2023-04-21T09:34:47.211Z,6.10
2023-04-21T09:37:16.633Z,5.85
2023-04-21T09:40:03.341Z,6.15
2023-04-21T09:42:32.795Z,6.90
2023-04-21T09:47:39.586Z,5.03
2023-04-21T09:52:37.812Z,5.60
2023-04-21T09:55:10.879Z,5.28
2023-04-21T09:57:41.286Z,5.28
2023-04-21T10:00:12.021Z,5.65
2023-04-21T10:02:48.528Z,5.47
2023-04-21T10:05:16.553Z,5.35
2023-04-21T10:07:45.112Z,5.50
2023-04-21T10:10:22.513Z,5.35
2023-04-21T10:12:51.136Z,5.00
2023-04-21T10:15:35.937Z,4.78
2023-04-21T10:18:31.913Z,5.43
2023-04-21T10:21:09.623Z,5.53
2023-04-21T10:23:44.818Z,5.25
2023-04-21T10:26:25.266Z,5.00
2023-04-21T10:29:00.614Z,4.47
2023-04-21T10:31:35.311Z,3.63
2023-04-21T10:34:08.350Z,4.82
2023-04-21T10:36:36.061Z,4.40
2023-04-21T10:39:04.227Z,4.18
2023-04-21T10:41:32.803Z,4.60
2023-04-21T10:44:00.145Z,4.80
2023-04-21T10:46:40.389Z,4.10
2023-04-21T10:49:24.314Z,3.53
2023-04-21T10:52:00.600Z,3.60
2023-04-21T10:54:36.897Z,3.92
2023-04-21T10:57:08.140Z,3.53
2023-04-21T10:59:36.034Z,4.03
2023-04-21T11:02:04.997Z,3.40
2023-04-21T11:04:32.730Z,3.95
2023-04-21T11:07:12.099Z,3.70
2023-04-21T11:09:40.440Z,3.95
2023-04-21T11:12:11.887Z,3.92
2023-04-21T11:14:41.627Z,3.63
2023-04-21T11:17:13.800Z,4.28
2023-04-21T11:19:45.536Z,3.88
2023-04-21T11:22:12.278Z,4.65
2023-04-21T11:24:51.391Z,4.35
2023-04-21T11:27:20.486Z,3.72
2023-04-21T11:29:47.374Z,4.22
2023-04-21T11:32:16.095Z,4.13
2023-04-21T11:34:43.372Z,4.75
2023-04-21T11:37:16.898Z,3.90
2023-04-21T11:39:44.249Z,4.43
2023-04-21T11:42:14.151Z,5.00
2023-04-21T11:44:45.417Z,4.60
2023-04-21T11:47:14.374Z,4.00
2023-04-21T11:49:49.277Z,4.20
2023-04-21T11:52:24.783Z,3.85
2023-04-21T11:55:02.017Z,4.63
2023-04-21T11:57:30.853Z,4.43
2023-04-21T12:00:02.337Z,4.20
2023-04-21T12:02:31.312Z,4.55
2023-04-21T12:05:06.941Z,3.50
2023-04-21T12:07:44.731Z,4.25
2023-04-21T12:10:13.435Z,4.30
2023-04-21T12:12:42.062Z,4.20
2023-04-21T12:15:11.098Z,3.97
2023-04-21T12:17:45.327Z,4.22
2023-04-21T12:20:15.259Z,4.28
2023-04-21T12:22:41.927Z,4.15
2023-04-21T12:25:11.643Z,3.90
2023-04-21T12:27:38.379Z,4.88
2023-04-21T12:30:06.141Z,3.95
2023-04-21T12:32:32.930Z,4.35
2023-04-21T12:35:00.630Z,4.38
2023-04-21T12:37:27.344Z,4.18
2023-04-21T12:39:54.036Z,4.60
2023-04-21T12:42:20.829Z,3.83
2023-04-21T12:44:47.509Z,4.15
2023-04-21T12:47:14.254Z,4.03
2023-04-21T12:49:47.232Z,4.35
2023-04-21T12:52:13.923Z,4.07
2023-04-21T12:54:40.708Z,3.67
2023-04-21T12:57:07.480Z,4.18
2023-04-21T12:59:34.150Z,4.70
2023-04-21T13:02:00.963Z,3.85
2023-04-21T13:04:28.020Z,4.38
2023-04-21T13:06:55.006Z,4.10
2023-04-21T13:09:21.731Z,3.90
2023-04-21T13:11:48.365Z,4.30
2023-04-21T13:14:16.108Z,3.53
2023-04-21T13:16:43.968Z,3.90
2023-04-21T13:19:11.380Z,4.25
2023-04-21T13:21:38.038Z,3.75
2023-04-21T13:24:04.843Z,3.50
2023-04-21T13:26:33.760Z,3.92
2023-04-21T13:29:03.383Z,3.92
2023-04-21T13:31:30.665Z,3.47
2023-04-21T13:33:59.591Z,3.80
2023-04-21T13:36:26.870Z,3.72
2023-04-21T13:38:56.571Z,4.05
2023-04-21T13:41:23.868Z,4.18
2023-04-21T13:44:01.177Z,3.85
2023-04-21T13:46:28.029Z,4.10
2023-04-21T13:48:55.510Z,3.85
2023-04-21T13:51:22.241Z,3.90
2023-04-21T13:53:49.101Z,4.43
2023-04-21T13:56:17.519Z,3.83
2023-04-21T13:58:44.650Z,3.63
2023-04-21T14:01:15.097Z,3.58
2023-04-21T14:03:42.765Z,3.40
2023-04-21T14:06:09.706Z,3.35
2023-04-21T14:08:36.315Z,3.50
2023-04-21T14:11:04.817Z,3.75
2023-04-21T14:16:01.715Z,4.07
2023-04-21T14:18:28.397Z,3.70
2023-04-21T14:20:55.087Z,3.13
2023-04-21T14:23:21.672Z,2.95
2023-04-21T14:25:51.079Z,3.42
2023-04-21T14:28:20.117Z,3.90
2023-04-21T14:30:46.794Z,3.40
2023-04-21T14:33:13.606Z,3.08
2023-04-21T14:35:46.549Z,2.88
2023-04-21T14:38:13.666Z,3.72
2023-04-21T14:40:44.366Z,3.40
2023-04-21T14:43:11.560Z,4.28
2023-04-21T14:45:38.564Z,3.53
2023-04-21T14:48:06.360Z,3.28
2023-04-21T14:50:33.330Z,3.10
2023-04-21T14:53:00.004Z,3.25
2023-04-21T14:55:26.617Z,3.85
2023-04-21T14:58:04.301Z,3.17
2023-04-21T15:00:32.430Z,3.10
2023-04-21T15:02:59.345Z,3.10
2023-04-21T15:05:26.265Z,3.58
2023-04-21T15:07:52.997Z,3.38
2023-04-21T15:10:19.987Z,2.90
2023-04-21T15:12:46.862Z,4.50
2023-04-21T15:15:14.312Z,3.08
2023-04-21T15:17:45.803Z,2.92
2023-04-21T15:20:12.635Z,2.83
2023-04-21T15:22:42.788Z,3.10
2023-04-21T15:25:09.789Z,2.97
2023-04-21T15:27:36.906Z,3.15
2023-04-21T15:30:04.729Z,3.30
2023-04-21T15:32:31.900Z,3.10
2023-04-21T15:34:58.554Z,2.92
2023-04-21T15:37:26.025Z,2.85
2023-04-21T15:39:53.188Z,3.08
2023-04-21T15:42:20.590Z,3.05
2023-04-21T15:44:47.360Z,2.88
2023-04-21T15:47:16.415Z,3.42
2023-04-21T15:49:43.583Z,2.80
2023-04-21T15:52:11.043Z,3.15
2023-04-21T15:54:38.147Z,3.25
2023-04-21T15:57:05.661Z,2.80
2023-04-21T15:59:32.379Z,3.20
2023-04-21T16:01:59.524Z,13.15
2023-04-21T16:04:32.450Z,10.43
2023-04-21T16:06:59.349Z,4.43
2023-04-21T16:09:26.363Z,3.45
2023-04-21T16:11:53.283Z,3.03
2023-04-21T16:14:19.969Z,3.22
2023-04-21T16:16:46.907Z,3.10
2023-04-21T16:19:13.790Z,2.95
2023-04-21T16:21:40.742Z,3.20
2023-04-21T16:24:08.627Z,2.78
2023-04-21T16:26:36.395Z,3.40
2023-04-21T16:29:03.270Z,3.72
2023-04-21T16:31:30.055Z,5.05
2023-04-21T16:33:59.935Z,3.17
2023-04-21T16:36:32.656Z,5.72
2023-04-21T16:38:59.953Z,2.75
2023-04-21T16:41:26.716Z,3.83
2023-04-21T16:43:53.437Z,2.70
2023-04-21T16:46:20.328Z,2.95
2023-04-21T16:48:47.113Z,3.50
2023-04-21T16:51:13.989Z,2.97
2023-04-21T16:53:41.973Z,3.10
2023-04-21T16:56:09.278Z,3.38
2023-04-21T16:58:37.394Z,3.15
2023-04-21T17:01:04.933Z,3.28
2023-04-21T17:03:31.950Z,3.40
2023-04-21T17:05:58.741Z,2.78
2023-04-21T17:08:25.450Z,3.13
2023-04-21T17:10:52.116Z,4.30
2023-04-21T17:13:18.773Z,3.33
2023-04-21T17:15:45.714Z,3.85
2023-04-21T17:18:12.403Z,3.15
2023-04-21T17:20:39.157Z,4.35
2023-04-21T17:23:06.002Z,3.72
2023-04-21T17:25:32.726Z,3.55
2023-04-21T17:27:59.481Z,3.08
2023-04-21T17:30:26.295Z,4.00
2023-04-21T17:33:04.194Z,3.15
2023-04-21T17:35:45.986Z,3.30
2023-04-21T17:38:19.333Z,3.00
2023-04-21T17:40:49.771Z,2.72
2023-04-21T17:43:16.387Z,3.20
2023-04-21T17:45:46.175Z,2.90
2023-04-21T17:48:16.745Z,2.53
2023-04-21T17:50:43.441Z,2.85
2023-04-21T17:53:11.237Z,2.80
2023-04-21T17:55:40.280Z,3.05
2023-04-21T17:58:08.758Z,3.10
2023-04-21T18:00:37.810Z,4.03
2023-04-21T18:03:07.221Z,3.60
2023-04-21T18:05:34.244Z,3.30
2023-04-21T18:08:01.210Z,2.88
2023-04-21T18:10:29.758Z,2.92
2023-04-21T18:12:56.878Z,3.00
2023-04-21T18:15:24.106Z,2.85
2023-04-21T18:17:52.852Z,3.95
2023-04-21T18:20:20.169Z,2.85
2023-04-21T18:22:47.352Z,2.78
2023-04-21T18:25:15.281Z,2.95
2023-04-21T18:27:42.338Z,2.45
2023-04-21T18:30:09.836Z,2.55
2023-04-21T18:32:37.181Z,2.92
2023-04-21T18:35:06.417Z,2.25
2023-04-21T18:37:33.523Z,2.75
2023-04-21T18:40:01.215Z,2.70
2023-04-21T18:42:32.651Z,2.63
2023-04-21T18:45:02.218Z,2.72
2023-04-21T18:47:30.690Z,2.75
2023-04-21T18:49:58.876Z,2.22
2023-04-21T18:52:26.259Z,2.80
2023-04-21T18:54:52.961Z,2.80
2023-04-21T18:57:23.490Z,2.63
2023-04-21T18:59:56.815Z,2.90
2023-04-21T19:02:24.693Z,2.83
2023-04-21T19:04:55.567Z,2.85
2023-04-21T19:07:22.916Z,3.00
2023-04-21T19:09:49.999Z,2.92
2023-04-21T19:12:17.614Z,2.95
2023-04-21T19:14:47.458Z,3.10
2023-04-21T19:17:15.556Z,3.10
2023-04-21T19:19:43.579Z,3.20
2023-04-21T19:22:10.387Z,3.13
2023-04-21T19:24:38.390Z,2.80
2023-04-21T19:27:06.182Z,2.65
2023-04-21T19:29:37.474Z,2.83
2023-04-21T19:32:04.500Z,3.03
2023-04-21T19:34:31.306Z,2.97
2023-04-21T19:36:58.081Z,2.65
2023-04-21T19:39:24.760Z,3.08
2023-04-21T19:41:54.279Z,3.00
2023-04-21T19:44:20.977Z,2.50
2023-04-21T19:46:48.231Z,2.72
2023-04-21T19:49:14.985Z,3.22
2023-04-21T19:51:41.648Z,3.05
2023-04-21T19:54:12.093Z,2.60
2023-04-21T19:56:39.760Z,2.90
2023-04-21T19:59:06.984Z,2.80
2023-04-21T20:01:34.316Z,2.97
2023-04-21T20:04:01.387Z,2.90
2023-04-21T20:06:28.596Z,2.63
2023-04-21T20:08:55.687Z,2.53
2023-04-21T20:11:23.110Z,2.55
2023-04-21T20:13:50.153Z,2.60
2023-04-21T20:16:19.761Z,3.45
2023-04-21T20:18:46.640Z,3.05
2023-04-21T20:21:13.370Z,2.75
2023-04-21T20:23:40.814Z,2.78
2023-04-21T20:26:07.465Z,2.85
2023-04-21T20:28:34.114Z,2.80
2023-04-21T20:31:04.164Z,2.58
2023-04-21T20:33:31.037Z,2.75
2023-04-21T20:35:58.147Z,2.70
2023-04-21T20:38:24.832Z,2.97
2023-04-21T20:40:53.109Z,3.00
2023-04-21T20:43:20.166Z,2.75
2023-04-21T20:45:47.485Z,2.88
2023-04-21T20:48:14.173Z,2.92
2023-04-21T20:50:41.735Z,3.30
2023-04-21T20:53:10.138Z,3.10
2023-04-21T20:55:36.952Z,3.05
2023-04-21T20:58:06.572Z,3.42
2023-04-21T21:00:34.536Z,3.08
2023-04-21T21:03:01.474Z,2.95
2023-04-21T21:05:33.364Z,2.70
2023-04-21T21:08:00.191Z,3.08
2023-04-21T21:10:27.176Z,2.65
2023-04-21T21:12:53.962Z,2.97
2023-04-21T21:15:20.779Z,2.78
2023-04-21T21:17:47.505Z,3.53
2023-04-21T21:20:14.326Z,2.92
2023-04-21T21:22:41.046Z,3.15
2023-04-21T21:25:08.142Z,3.25
2023-04-21T21:27:34.901Z,2.95
2023-04-21T21:30:02.274Z,2.80
2023-04-21T21:32:28.890Z,2.60
2023-04-21T21:34:55.900Z,2.95
2023-04-21T21:37:24.367Z,2.95
2023-04-21T21:39:51.029Z,2.78
2023-04-21T21:42:19.819Z,2.80
2023-04-21T21:44:46.492Z,3.10
2023-04-21T21:47:13.217Z,3.05
2023-04-21T21:49:40.185Z,3.22
2023-04-21T21:52:07.068Z,3.08
2023-04-21T21:54:33.694Z,3.20
2023-04-21T21:57:01.273Z,3.30
2023-04-21T21:59:28.112Z,2.83
2023-04-21T22:01:54.907Z,2.83
2023-04-21T22:04:21.719Z,2.80
2023-04-21T22:06:48.767Z,2.67
2023-04-21T22:09:15.862Z,3.35
2023-04-21T22:11:42.572Z,2.80
2023-04-21T22:14:21.848Z,3.22
2023-04-21T22:16:50.906Z,4.28
2023-04-21T22:19:20.241Z,2.75
2023-04-21T22:21:47.074Z,3.13
2023-04-21T22:24:13.822Z,2.40
2023-04-21T22:26:40.873Z,2.78
2023-04-21T22:29:07.668Z,2.60
2023-04-21T22:31:34.523Z,3.03
2023-04-21T22:34:01.314Z,2.85
2023-04-21T22:36:28.035Z,3.08
2023-04-21T22:38:54.720Z,2.85
2023-04-21T22:41:21.368Z,3.28
2023-04-21T22:43:48.264Z,2.80
2023-04-21T22:46:15.277Z,2.80
2023-04-21T22:48:41.984Z,2.85
2023-04-21T22:51:08.693Z,3.00
2023-04-21T22:53:35.517Z,2.97
2023-04-21T22:56:02.270Z,3.28
2023-04-21T22:58:28.988Z,2.70
2023-04-21T23:00:55.778Z,2.67
2023-04-21T23:03:23.776Z,2.45
2023-04-21T23:05:50.735Z,2.67
2023-04-21T23:08:17.412Z,2.22
2023-04-21T23:10:44.114Z,2.42
2023-04-21T23:13:10.733Z,2.40
2023-04-21T23:15:37.430Z,2.28
2023-04-21T23:18:04.499Z,2.30
2023-04-21T23:20:31.650Z,2.08
2023-04-21T23:22:58.613Z,2.50
2023-04-21T23:25:25.434Z,2.28
2023-04-21T23:27:52.067Z,2.28
2023-04-21T23:30:19.044Z,2.10
2023-04-21T23:32:45.972Z,3.30
2023-04-21T23:35:12.792Z,1.90
2023-04-21T23:37:39.730Z,2.00
2023-04-21T23:40:09.205Z,2.33
2023-04-21T23:42:36.239Z,2.42
2023-04-21T23:45:03.629Z,2.97
2023-04-21T23:47:30.540Z,2.13
2023-04-21T23:49:57.593Z,2.80
2023-04-21T23:52:24.332Z,2.35
2023-04-21T23:54:51.055Z,2.30
2023-04-21T23:57:18.502Z,2.38
2023-04-21T23:59:45.750Z,2.30
